TAF KCDC
KCDC 280529Z 2806/2906 VRB05KT P6SM SKC=
METAR KCDC
WC KCDC
WS KCDC
WV KCDC